Time;durP1;ratioP1;P1;durP2;ratioP2;P2;SDS_P1;SDS_P2;PMS_P1;PMS_P2;Temp;Humidity;BMP_temperature;BMP_pressure;BME280_temperature;BME280_humidity;BME280_pressure;Samples;Min_cycle;Max_cycle;Signal;HPM_P1;HPM_P2
2023/03/27 00:02:13;;;;;;;10.95;10.25;;;;;;;;;;4996459;28;20027;-51
2023/03/27 00:04:40;;;;;;;10.00;9.40;;;;;;;;;;4997182;28;20121;-49
2023/03/27 00:07:06;;;;;;;15.68;9.38;;;;;;;;;;4996487;28;20041;-51
2023/03/27 00:09:32;;;;;;;9.73;9.13;;;;;;;;;;5013099;28;20073;-50
2023/03/27 00:11:59;;;;;;;9.07;8.48;;;;;;;;;;5010848;28;20476;-51
2023/03/27 00:14:25;;;;;;;10.05;9.45;;;;;;;;;;4994400;28;20031;-49
2023/03/27 00:16:50;;;;;;;9.95;9.35;;;;;;;;;;4997574;28;20041;-50
2023/03/27 00:19:15;;;;;;;9.77;8.95;;;;;;;;;;4996759;28;20037;-46
2023/03/27 00:21:43;;;;;;;10.35;9.50;;;;;;;;;;4996631;28;20496;-50
2023/03/27 00:24:09;;;;;;;9.55;8.95;;;;;;;;;;4994791;28;20460;-51
2023/03/27 00:26:35;;;;;;;9.32;8.73;;;;;;;;;;4996817;28;20053;-48
2023/03/27 00:29:00;;;;;;;10.10;9.50;;;;;;;;;;4995774;28;20421;-46
2023/03/27 00:31:26;;;;;;;9.32;8.73;;;;;;;;;;4999344;28;21475;-49
2023/03/27 00:33:51;;;;;;;9.35;8.75;;;;;;;;;;4998106;28;20022;-48
2023/03/27 00:36:17;;;;;;;9.38;8.77;;;;;;;;;;4994704;28;20086;-48
2023/03/27 00:38:42;;;;;;;9.73;9.13;;;;;;;;;;4996888;28;20030;-46
2023/03/27 00:41:08;;;;;;;9.88;9.27;;;;;;;;;;4992753;28;20042;-48
2023/03/27 00:43:35;;;;;;;10.10;9.38;;;;;;;;;;4995800;28;20407;-48
2023/03/27 00:46:34;;;;;;;9.50;8.90;;;;;;;;;;4995434;28;20041;-52
2023/03/27 00:49:04;;;;;;;10.27;9.68;;;;;;;;;;4992998;28;20401;-48
2023/03/27 00:51:30;;;;;;;9.13;8.52;;;;;;;;;;4997803;28;20030;-47
2023/03/27 00:53:56;;;;;;;11.63;10.75;;;;;;;;;;4994155;28;20042;-51
2023/03/27 00:56:23;;;;;;;10.32;9.73;;;;;;;;;;4992645;28;20425;-47
2023/03/27 00:58:52;;;;;;;9.63;9.02;;;;;;;;;;4993975;28;20365;-50
2023/03/27 01:01:18;;;;;;;10.73;9.68;;;;;;;;;;4995486;28;20038;-47
2023/03/27 01:03:47;;;;;;;9.07;8.48;;;;;;;;;;4990512;28;20041;-49
2023/03/27 01:06:15;;;;;;;9.40;8.80;;;;;;;;;;4995880;28;20030;-46
2023/03/27 01:08:43;;;;;;;10.95;10.18;;;;;;;;;;4993936;28;20040;-46
2023/03/27 01:11:31;;;;;;;9.80;9.20;;;;;;;;;;4997919;28;20159;-47
2023/03/27 01:14:17;;;;;;;9.65;9.05;;;;;;;;;;4993894;28;20048;-47
2023/03/27 01:16:57;;;;;;;10.05;9.45;;;;;;;;;;4976483;28;20125;-47
2023/03/27 01:19:40;;;;;;;10.57;9.90;;;;;;;;;;4988577;28;20048;-46
2023/03/27 01:22:32;;;;;;;10.15;9.50;;;;;;;;;;4994452;28;20091;-48
2023/03/27 01:25:11;;;;;;;10.13;9.52;;;;;;;;;;4979193;28;20486;-47
2023/03/27 01:27:53;;;;;;;10.07;9.45;;;;;;;;;;4995383;28;20041;-46
2023/03/27 01:30:28;;;;;;;10.15;9.55;;;;;;;;;;4994867;28;20111;-47
2023/03/27 01:33:37;;;;;;;10.38;9.77;;;;;;;;;;4999256;28;20041;-46
2023/03/27 01:36:15;;;;;;;9.85;9.25;;;;;;;;;;4993317;28;20044;-46
2023/03/27 01:38:43;;;;;;;10.23;9.52;;;;;;;;;;4994259;28;21294;-47
2023/03/27 01:41:31;;;;;;;10.75;9.90;;;;;;;;;;4995939;28;20080;-48
2023/03/27 01:44:12;;;;;;;11.65;10.95;;;;;;;;;;4992900;28;20073;-47
2023/03/27 01:46:41;;;;;;;;;;;;;;;;;;4993286;28;20332;-53
2023/03/27 01:49:19;;;;;;;11.25;10.55;;;;;;;;;;4994098;28;19917;-47
2023/03/27 01:51:52;;;;;;;11.48;10.77;;;;;;;;;;4995607;28;20057;-47
2023/03/27 01:54:23;;;;;;;10.43;9.82;;;;;;;;;;5008614;28;20069;-48
2023/03/27 01:57:01;;;;;;;9.48;8.88;;;;;;;;;;4996796;28;20046;-51
2023/03/27 01:59:29;;;;;;;11.07;10.00;;;;;;;;;;4992765;28;20531;-49
2023/03/27 02:02:16;;;;;;;12.27;11.27;;;;;;;;;;4994173;28;20121;-52
2023/03/27 02:04:58;;;;;;;9.50;8.90;;;;;;;;;;4994329;28;20034;-47
2023/03/27 02:07:50;;;;;;;10.50;9.80;;;;;;;;;;4991828;28;20159;-49
2023/03/27 02:10:21;;;;;;;9.35;8.75;;;;;;;;;;4992685;28;20121;-48
2023/03/27 02:12:51;;;;;;;9.07;8.48;;;;;;;;;;4994526;28;20400;-48
2023/03/27 02:15:25;;;;;;;9.55;8.75;;;;;;;;;;4994727;28;20137;-49
2023/03/27 02:18:06;;;;;;;9.00;8.40;;;;;;;;;;4992476;28;20617;-49
2023/03/27 02:20:33;;;;;;;9.00;8.40;;;;;;;;;;5010019;28;20272;-47
2023/03/27 02:22:59;;;;;;;10.23;9.55;;;;;;;;;;4996927;28;20113;-46
2023/03/27 02:25:30;;;;;;;9.80;9.20;;;;;;;;;;4995281;28;20132;-47
2023/03/27 02:28:14;;;;;;;9.20;8.60;;;;;;;;;;4993570;28;20597;-47
2023/03/27 02:31:08;;;;;;;8.88;8.27;;;;;;;;;;4990556;28;20041;-46
2023/03/27 02:34:09;;;;;;;12.00;11.02;;;;;;;;;;4987843;28;20129;-47
2023/03/27 02:36:56;;;;;;;10.13;9.35;;;;;;;;;;4993369;28;20158;-47
2023/03/27 02:39:42;;;;;;;9.93;9.32;;;;;;;;;;4989821;28;20512;-48
2023/03/27 02:42:16;;;;;;;9.52;8.90;;;;;;;;;;4993450;28;20030;-47
2023/03/27 02:44:50;;;;;;;9.57;8.98;;;;;;;;;;4997980;28;20047;-48
2023/03/27 02:47:44;;;;;;;8.75;8.20;;;;;;;;;;4995688;28;20136;-48
2023/03/27 02:50:20;;;;;;;9.20;8.60;;;;;;;;;;4992297;28;20045;-51
2023/03/27 02:52:50;;;;;;;10.15;9.55;;;;;;;;;;5010298;28;20479;-50
2023/03/27 02:55:27;;;;;;;9.68;9.07;;;;;;;;;;4996596;28;20045;-49
2023/03/27 02:57:58;;;;;;;10.32;9.68;;;;;;;;;;4997907;28;20042;-49
2023/03/27 03:00:27;;;;;;;9.75;9.15;;;;;;;;;;4996752;28;20038;-51
2023/03/27 03:03:02;;;;;;;9.70;9.10;;;;;;;;;;4993787;28;20536;-48
2023/03/27 03:05:27;;;;;;;10.18;9.48;;;;;;;;;;4992858;28;20368;-48
2023/03/27 03:07:53;;;;;;;9.80;9.20;;;;;;;;;;4993700;28;20581;-48
2023/03/27 03:10:20;;;;;;;10.38;9.68;;;;;;;;;;4995217;28;20042;-48
2023/03/27 03:12:45;;;;;;;9.50;8.90;;;;;;;;;;4995913;28;20100;-47
2023/03/27 03:15:11;;;;;;;9.73;9.13;;;;;;;;;;4999621;28;20047;-47
2023/03/27 03:17:36;;;;;;;10.45;9.80;;;;;;;;;;4997010;28;20445;-49
2023/03/27 03:20:04;;;;;;;10.93;10.23;;;;;;;;;;4996873;28;20038;-48
2023/03/27 03:22:30;;;;;;;9.85;9.15;;;;;;;;;;4996287;28;20035;-47
2023/03/27 03:24:56;;;;;;;9.80;9.20;;;;;;;;;;4995442;28;20060;-48
2023/03/27 03:27:22;;;;;;;10.05;9.35;;;;;;;;;;4994280;28;20120;-47
2023/03/27 03:29:47;;;;;;;10.65;9.88;;;;;;;;;;4994926;28;20038;-51
2023/03/27 03:32:13;;;;;;;9.55;8.95;;;;;;;;;;4993889;28;20048;-48
2023/03/27 03:34:45;;;;;;;9.98;9.38;;;;;;;;;;4995869;28;20044;-50
2023/03/27 03:37:11;;;;;;;9.48;8.88;;;;;;;;;;4996526;28;20044;-47
2023/03/27 03:39:36;;;;;;;10.65;10.02;;;;;;;;;;4997251;28;20453;-47
2023/03/27 03:42:02;;;;;;;11.38;10.68;;;;;;;;;;4997252;28;20360;-51
2023/03/27 03:44:27;;;;;;;9.85;9.25;;;;;;;;;;4997145;28;20458;-49
2023/03/27 03:46:52;;;;;;;11.07;10.00;;;;;;;;;;4996207;28;20349;-49
2023/03/27 03:49:18;;;;;;;9.90;9.30;;;;;;;;;;4996265;28;20077;-49
2023/03/27 03:51:43;;;;;;;10.32;9.60;;;;;;;;;;4996827;28;20092;-49
2023/03/27 03:54:09;;;;;;;9.75;9.15;;;;;;;;;;4994701;28;20030;-51
2023/03/27 03:56:36;;;;;;;10.85;10.05;;;;;;;;;;4995266;28;20105;-49
2023/03/27 03:59:01;;;;;;;10.77;10.13;;;;;;;;;;4994288;28;20041;-51
2023/03/27 04:01:26;;;;;;;11.20;10.50;;;;;;;;;;4996232;28;20117;-50
2023/03/27 04:03:52;;;;;;;10.57;9.88;;;;;;;;;;4998505;28;20109;-49
2023/03/27 04:06:19;;;;;;;9.98;9.38;;;;;;;;;;4995580;28;20045;-49
2023/03/27 04:08:45;;;;;;;11.45;10.75;;;;;;;;;;4996947;28;20033;-52
2023/03/27 04:11:11;;;;;;;10.57;9.88;;;;;;;;;;4995104;28;20041;-46
2023/03/27 04:13:36;;;;;;;10.73;10.05;;;;;;;;;;4992306;28;20036;-53
2023/03/27 04:16:02;;;;;;;10.10;9.48;;;;;;;;;;4995470;28;20029;-47
2023/03/27 04:18:34;;;;;;;13.27;10.00;;;;;;;;;;4995610;28;20373;-52
2023/03/27 04:21:00;;;;;;;10.27;9.68;;;;;;;;;;4991562;28;20053;-48
2023/03/27 04:23:32;;;;;;;10.65;10.02;;;;;;;;;;4991704;28;20396;-51
2023/03/27 04:25:59;;;;;;;11.15;10.38;;;;;;;;;;4995702;28;20121;-52
2023/03/27 04:28:26;;;;;;;10.40;9.70;;;;;;;;;;4995888;28;20074;-49
2023/03/27 04:30:51;;;;;;;10.48;9.80;;;;;;;;;;4994956;28;20696;-52
2023/03/27 04:33:17;;;;;;;10.18;9.57;;;;;;;;;;4993873;28;20142;-52
2023/03/27 04:35:46;;;;;;;11.88;11.13;;;;;;;;;;4996269;28;20440;-51
2023/03/27 04:38:12;;;;;;;9.98;9.30;;;;;;;;;;4993265;28;20115;-49
2023/03/27 04:40:44;;;;;;;10.20;9.60;;;;;;;;;;4991925;28;20041;-49
2023/03/27 04:43:11;;;;;;;10.45;9.77;;;;;;;;;;4992658;28;20096;-48
2023/03/27 04:45:37;;;;;;;10.38;9.70;;;;;;;;;;4992783;28;20379;-50
2023/03/27 04:48:03;;;;;;;10.18;9.57;;;;;;;;;;4995690;28;20379;-51
2023/03/27 04:50:29;;;;;;;9.90;9.15;;;;;;;;;;4994631;28;20060;-49
2023/03/27 04:52:58;;;;;;;10.60;9.95;;;;;;;;;;4995284;28;20102;-56
2023/03/27 04:55:25;;;;;;;10.05;9.45;;;;;;;;;;4993850;28;20096;-50
2023/03/27 04:57:51;;;;;;;10.18;9.50;;;;;;;;;;4992990;28;20038;-48
2023/03/27 05:00:18;;;;;;;10.52;9.93;;;;;;;;;;4991805;28;20554;-49
2023/03/27 05:02:47;;;;;;;9.73;9.13;;;;;;;;;;4997608;28;20030;-50
2023/03/27 05:05:13;;;;;;;10.77;10.15;;;;;;;;;;4996217;28;20366;-49
2023/03/27 05:07:38;;;;;;;12.18;10.98;;;;;;;;;;5010001;28;20049;-50
2023/03/27 05:10:05;;;;;;;10.80;9.80;;;;;;;;;;4995288;28;20046;-48
2023/03/27 05:12:31;;;;;;;9.95;9.30;;;;;;;;;;4994558;28;20034;-47
2023/03/27 05:14:58;;;;;;;9.32;8.73;;;;;;;;;;4993274;28;20040;-49
2023/03/27 05:17:24;;;;;;;10.23;9.63;;;;;;;;;;4992728;28;20072;-52
2023/03/27 05:19:50;;;;;;;11.02;10.32;;;;;;;;;;4992890;28;20108;-45
2023/03/27 05:22:16;;;;;;;10.50;9.90;;;;;;;;;;4996858;28;20045;-48
2023/03/27 05:24:41;;;;;;;10.25;9.52;;;;;;;;;;4995464;28;20036;-46
2023/03/27 05:27:07;;;;;;;9.85;9.23;;;;;;;;;;4991563;28;20049;-47
2023/03/27 05:29:33;;;;;;;9.73;9.13;;;;;;;;;;4998603;28;20104;-48
2023/03/27 05:31:59;;;;;;;10.98;10.30;;;;;;;;;;4994675;28;20502;-50
2023/03/27 05:34:25;;;;;;;9.95;9.25;;;;;;;;;;4994541;28;20040;-52
2023/03/27 05:36:51;;;;;;;9.63;9.02;;;;;;;;;;4993975;28;20046;-49
2023/03/27 05:39:17;;;;;;;9.20;8.60;;;;;;;;;;5009223;28;20056;-53
2023/03/27 05:41:43;;;;;;;10.13;9.52;;;;;;;;;;4994566;28;20026;-50
2023/03/27 05:44:08;;;;;;;9.88;9.27;;;;;;;;;;4994704;28;20034;-49
2023/03/27 05:46:34;;;;;;;15.00;10.15;;;;;;;;;;4995173;28;20034;-50
2023/03/27 05:48:59;;;;;;;10.48;9.68;;;;;;;;;;4994909;28;20037;-51
2023/03/27 05:51:25;;;;;;;10.85;10.15;;;;;;;;;;4996482;28;20536;-50
2023/03/27 05:53:50;;;;;;;10.35;9.75;;;;;;;;;;4994573;28;20030;-48
2023/03/27 05:56:16;;;;;;;11.10;10.30;;;;;;;;;;4992006;28;20088;-48
2023/03/27 05:58:41;;;;;;;11.10;10.27;;;;;;;;;;4992770;28;20026;-49
2023/03/27 06:01:09;;;;;;;10.82;10.13;;;;;;;;;;4993963;28;20042;-47
2023/03/27 06:03:37;;;;;;;10.18;9.55;;;;;;;;;;4992701;28;20050;-49
2023/03/27 06:06:09;;;;;;;10.10;9.50;;;;;;;;;;4993995;28;20053;-46
2023/03/27 06:08:35;;;;;;;10.82;10.13;;;;;;;;;;4993948;28;20026;-50
2023/03/27 06:11:07;;;;;;;10.88;10.18;;;;;;;;;;4993427;28;20112;-51
2023/03/27 06:13:32;;;;;;;11.15;10.45;;;;;;;;;;4997099;28;20040;-47
2023/03/27 06:15:59;;;;;;;11.60;10.27;;;;;;;;;;4994483;28;20034;-49
2023/03/27 06:18:24;;;;;;;10.27;9.68;;;;;;;;;;4995782;28;20034;-49
2023/03/27 06:20:50;;;;;;;9.82;9.23;;;;;;;;;;4998407;28;20034;-51
2023/03/27 06:23:16;;;;;;;10.25;9.55;;;;;;;;;;4997958;28;20577;-49
2023/03/27 06:25:42;;;;;;;9.00;8.40;;;;;;;;;;4997478;28;20048;-47
2023/03/27 06:28:09;;;;;;;10.88;10.18;;;;;;;;;;4998269;28;20069;-48
2023/03/27 06:30:38;;;;;;;11.02;10.32;;;;;;;;;;4996789;28;20411;-45
2023/03/27 06:33:06;;;;;;;9.75;9.15;;;;;;;;;;4998307;28;20181;-47
2023/03/27 06:35:32;;;;;;;8.95;8.35;;;;;;;;;;4998380;28;20040;-47
2023/03/27 06:37:58;;;;;;;9.32;8.68;;;;;;;;;;5011760;28;20048;-49
2023/03/27 06:40:26;;;;;;;9.48;8.77;;;;;;;;;;4997377;28;20034;-47
2023/03/27 06:42:53;;;;;;;10.57;9.82;;;;;;;;;;4998558;28;20034;-50
2023/03/27 06:45:19;;;;;;;8.65;8.05;;;;;;;;;;5000190;28;20052;-50
2023/03/27 06:47:56;;;;;;;9.02;8.43;;;;;;;;;;4992809;28;20366;-48
2023/03/27 06:50:23;;;;;;;9.40;8.80;;;;;;;;;;4996578;28;20057;-47
2023/03/27 06:52:48;;;;;;;9.73;8.93;;;;;;;;;;4997554;28;20412;-48
2023/03/27 06:55:15;;;;;;;10.40;9.80;;;;;;;;;;4997387;28;20117;-48
2023/03/27 06:57:46;;;;;;;11.43;10.55;;;;;;;;;;4999324;28;20038;-47
2023/03/27 07:00:15;;;;;;;10.45;9.85;;;;;;;;;;4997430;28;20049;-51
2023/03/27 07:02:41;;;;;;;12.18;11.15;;;;;;;;;;4998565;28;20050;-48
2023/03/27 07:05:07;;;;;;;10.00;9.40;;;;;;;;;;4998364;28;20101;-47
2023/03/27 07:07:33;;;;;;;11.75;10.95;;;;;;;;;;4993896;28;20034;-47
2023/03/27 07:09:58;;;;;;;10.05;9.45;;;;;;;;;;4996679;28;20038;-49
2023/03/27 07:12:24;;;;;;;9.50;8.90;;;;;;;;;;4995899;28;20034;-47
2023/03/27 07:14:50;;;;;;;10.70;9.40;;;;;;;;;;4996783;28;20034;-47
2023/03/27 07:17:15;;;;;;;10.10;9.40;;;;;;;;;;4999246;28;20033;-49
2023/03/27 07:19:41;;;;;;;10.85;10.15;;;;;;;;;;4999741;28;20037;-48
2023/03/27 07:22:06;;;;;;;10.43;9.80;;;;;;;;;;4996893;28;20125;-47
2023/03/27 07:24:31;;;;;;;9.80;9.20;;;;;;;;;;4998463;28;20045;-48
2023/03/27 07:26:57;;;;;;;10.88;9.95;;;;;;;;;;4999179;28;20042;-48
2023/03/27 07:29:22;;;;;;;9.88;9.27;;;;;;;;;;4996933;28;20037;-48
2023/03/27 07:31:47;;;;;;;11.25;10.30;;;;;;;;;;5000000;28;20033;-55
2023/03/27 07:34:13;;;;;;;9.85;9.25;;;;;;;;;;4998883;28;20034;-50
2023/03/27 07:36:38;;;;;;;10.30;9.57;;;;;;;;;;4998860;28;20038;-51
2023/03/27 07:39:04;;;;;;;9.73;9.13;;;;;;;;;;4998142;28;20057;-47
2023/03/27 07:41:29;;;;;;;10.13;9.32;;;;;;;;;;4996334;28;20026;-47
2023/03/27 07:43:55;;;;;;;9.77;9.18;;;;;;;;;;5012479;28;20052;-47
2023/03/27 07:46:22;;;;;;;10.65;10.00;;;;;;;;;;4997689;28;20052;-47
2023/03/27 07:48:49;;;;;;;10.05;9.38;;;;;;;;;;4996493;28;20639;-50
2023/03/27 07:51:16;;;;;;;10.98;10.27;;;;;;;;;;4997807;28;20034;-48
2023/03/27 07:53:42;;;;;;;10.02;9.43;;;;;;;;;;4996610;28;20044;-49
2023/03/27 07:56:09;;;;;;;10.00;9.30;;;;;;;;;;5000028;28;20037;-49
2023/03/27 07:58:35;;;;;;;12.27;11.30;;;;;;;;;;4998538;28;20030;-48
2023/03/27 08:01:00;;;;;;;10.80;10.20;;;;;;;;;;4997711;28;20065;-50
2023/03/27 08:03:26;;;;;;;11.13;10.43;;;;;;;;;;4994932;28;20037;-50
2023/03/27 08:05:57;;;;;;;11.77;10.98;;;;;;;;;;4995721;28;20525;-51
2023/03/27 08:08:24;;;;;;;12.20;11.25;;;;;;;;;;4995214;28;20041;-48
2023/03/27 08:10:52;;;;;;;12.10;11.40;;;;;;;;;;4996254;28;20060;-48
2023/03/27 08:13:17;;;;;;;11.68;10.82;;;;;;;;;;4989496;28;20221;-49
2023/03/27 08:15:43;;;;;;;11.10;10.40;;;;;;;;;;4996152;28;20867;-48
2023/03/27 08:18:10;;;;;;;11.20;10.50;;;;;;;;;;4998079;28;20165;-47
2023/03/27 08:20:36;;;;;;;11.57;10.88;;;;;;;;;;4994103;28;20038;-48
2023/03/27 08:23:01;;;;;;;11.40;10.45;;;;;;;;;;4992430;28;20046;-48
2023/03/27 08:25:28;;;;;;;10.88;10.25;;;;;;;;;;4991238;28;20037;-49
2023/03/27 08:27:54;;;;;;;11.38;10.68;;;;;;;;;;4996894;28;20034;-49
2023/03/27 08:30:22;;;;;;;11.02;10.32;;;;;;;;;;4996771;28;20045;-52
2023/03/27 08:32:48;;;;;;;12.98;11.68;;;;;;;;;;4999979;28;20460;-62
2023/03/27 08:35:13;;;;;;;11.60;10.90;;;;;;;;;;4993747;28;20033;-49
2023/03/27 08:37:40;;;;;;;10.40;9.77;;;;;;;;;;4996432;28;20133;-50
2023/03/27 08:40:12;;;;;;;12.43;11.20;;;;;;;;;;4999116;28;20443;-51
2023/03/27 08:42:42;;;;;;;10.30;9.70;;;;;;;;;;4994128;28;20606;-50
2023/03/27 08:45:18;;;;;;;12.02;11.23;;;;;;;;;;5010284;28;20069;-53
2023/03/27 08:47:50;;;;;;;11.45;10.75;;;;;;;;;;4995957;28;20068;-53
2023/03/27 08:50:29;;;;;;;10.90;10.23;;;;;;;;;;4992614;28;20041;-54
2023/03/27 08:52:57;;;;;;;11.00;10.30;;;;;;;;;;4993737;28;20045;-53
2023/03/27 08:55:36;;;;;;;10.70;10.10;;;;;;;;;;4995508;28;20033;-50
2023/03/27 08:58:02;;;;;;;10.25;9.65;;;;;;;;;;4994631;28;20053;-53
2023/03/27 09:00:34;;;;;;;10.35;9.70;;;;;;;;;;4992981;28;20535;-53
2023/03/27 09:03:14;;;;;;;12.20;11.35;;;;;;;;;;4994567;28;20448;-52
2023/03/27 09:05:55;;;;;;;11.45;10.75;;;;;;;;;;4994849;28;20593;-53
2023/03/27 09:08:51;;;;;;;11.60;10.90;;;;;;;;;;4996658;28;20038;-53
2023/03/27 09:11:23;;;;;;;11.48;10.77;;;;;;;;;;4994958;28;20046;-51
2023/03/27 09:13:50;;;;;;;12.10;11.10;;;;;;;;;;5009290;28;20435;-54
2023/03/27 09:16:30;;;;;;;11.70;10.75;;;;;;;;;;4993000;28;20066;-53
2023/03/27 09:19:14;;;;;;;10.20;9.60;;;;;;;;;;4991748;28;20046;-51
2023/03/27 09:21:52;;;;;;;10.38;9.77;;;;;;;;;;4992511;28;20038;-50
2023/03/27 09:24:35;;;;;;;11.68;10.75;;;;;;;;;;4993215;28;20038;-52
2023/03/27 09:27:17;;;;;;;17.75;11.57;;;;;;;;;;4994435;28;20031;-50
2023/03/27 09:29:44;;;;;;;10.85;10.02;;;;;;;;;;4992802;28;20033;-54
2023/03/27 09:32:14;;;;;;;10.63;10.00;;;;;;;;;;4994418;28;20084;-55
2023/03/27 09:34:40;;;;;;;10.70;10.10;;;;;;;;;;4993202;28;20471;-51
2023/03/27 09:37:15;;;;;;;10.63;10.02;;;;;;;;;;4994420;28;20038;-54
2023/03/27 09:39:45;;;;;;;11.70;11.00;;;;;;;;;;4993262;28;20030;-51
2023/03/27 09:42:16;;;;;;;11.15;10.45;;;;;;;;;;4994462;28;20038;-55
2023/03/27 09:44:44;;;;;;;16.35;15.18;;;;;;;;;;4994693;28;20030;-54
2023/03/27 09:47:16;;;;;;;15.73;14.82;;;;;;;;;;4993857;28;20034;-55
2023/03/27 09:49:51;;;;;;;16.27;15.38;;;;;;;;;;4991020;28;20030;-54
2023/03/27 09:52:37;;;;;;;15.00;14.15;;;;;;;;;;4991883;28;20055;-52
2023/03/27 09:55:23;;;;;;;14.85;13.95;;;;;;;;;;4991894;28;20030;-54
2023/03/27 09:57:51;;;;;;;15.52;14.63;;;;;;;;;;4995890;28;20046;-54
2023/03/27 10:00:35;;;;;;;14.43;13.63;;;;;;;;;;4991970;28;20415;-55
2023/03/27 10:03:13;;;;;;;12.63;11.93;;;;;;;;;;4995391;28;20042;-50
2023/03/27 10:05:40;;;;;;;13.25;12.45;;;;;;;;;;4991059;28;20077;-53
2023/03/27 10:08:31;;;;;;;12.05;11.35;;;;;;;;;;4993122;28;20042;-55
2023/03/27 10:10:57;;;;;;;12.20;11.50;;;;;;;;;;4993060;28;20073;-54
2023/03/27 10:13:28;;;;;;;13.82;13.02;;;;;;;;;;5008155;28;20417;-55
2023/03/27 10:15:59;;;;;;;15.60;14.70;;;;;;;;;;4993245;28;20392;-52
2023/03/27 10:18:32;;;;;;;;;;;;;;;;;;4992414;28;20060;-55
2023/03/27 10:21:00;;;;;;;13.48;12.68;;;;;;;;;;4992934;28;19928;-54
2023/03/27 10:23:48;;;;;;;13.90;13.10;;;;;;;;;;4995562;28;20041;-55
2023/03/27 10:26:17;;;;;;;14.30;13.40;;;;;;;;;;4993408;28;20096;-54
2023/03/27 10:28:50;;;;;;;15.40;14.52;;;;;;;;;;4989119;28;20150;-54
2023/03/27 10:31:26;;;;;;;14.13;13.32;;;;;;;;;;4993427;28;20046;-54
2023/03/27 10:33:52;;;;;;;11.93;11.23;;;;;;;;;;4993381;28;20049;-51
2023/03/27 10:36:19;;;;;;;12.00;11.30;;;;;;;;;;4992984;28;20038;-51
2023/03/27 10:38:52;;;;;;;9.57;8.98;;;;;;;;;;4992076;28;20038;-51
2023/03/27 10:41:18;;;;;;;9.95;9.35;;;;;;;;;;4992993;28;20456;-52
2023/03/27 10:43:47;;;;;;;9.98;9.38;;;;;;;;;;4994806;28;20749;-53
2023/03/27 10:46:16;;;;;;;10.57;9.98;;;;;;;;;;4993661;28;20045;-51
2023/03/27 10:49:03;;;;;;;10.90;10.20;;;;;;;;;;4991423;28;20456;-53
2023/03/27 10:51:49;;;;;;;10.75;10.05;;;;;;;;;;4994573;28;20046;-52
2023/03/27 10:54:14;;;;;;;10.38;9.68;;;;;;;;;;4996040;28;20532;-53
2023/03/27 10:56:50;;;;;;;10.13;9.52;;;;;;;;;;4993229;28;20080;-52
2023/03/27 10:59:22;;;;;;;10.90;10.23;;;;;;;;;;4993502;28;20057;-50
2023/03/27 11:01:52;;;;;;;10.70;10.10;;;;;;;;;;4991157;28;20053;-52
2023/03/27 11:04:27;;;;;;;11.95;11.07;;;;;;;;;;4994605;28;20031;-51
2023/03/27 11:06:57;;;;;;;10.45;9.85;;;;;;;;;;4994055;28;20111;-51
2023/03/27 11:09:26;;;;;;;10.25;9.65;;;;;;;;;;4996629;28;20030;-51
2023/03/27 11:11:54;;;;;;;11.30;10.60;;;;;;;;;;4997943;28;20530;-52
2023/03/27 11:14:51;;;;;;;10.27;9.68;;;;;;;;;;4996659;28;20042;-54
2023/03/27 11:17:22;;;;;;;13.88;12.15;;;;;;;;;;4997283;28;20530;-53
2023/03/27 11:19:53;;;;;;;11.27;10.57;;;;;;;;;;4997517;28;20506;-55
2023/03/27 11:22:33;;;;;;;12.27;11.57;;;;;;;;;;4997778;28;20042;-55
2023/03/27 11:25:10;;;;;;;12.32;11.63;;;;;;;;;;5002738;28;20042;-52
2023/03/27 11:27:52;;;;;;;13.57;12.77;;;;;;;;;;4993127;28;20072;-51
2023/03/27 11:30:43;;;;;;;13.77;12.98;;;;;;;;;;4994125;28;20096;-49
2023/03/27 11:33:43;;;;;;;15.73;14.83;;;;;;;;;;4995142;28;20124;-50
2023/03/27 11:36:31;;;;;;;12.90;12.15;;;;;;;;;;4994705;28;20092;-51
2023/03/27 11:39:10;;;;;;;14.18;13.30;;;;;;;;;;4994563;28;20042;-49
2023/03/27 11:41:36;;;;;;;14.02;13.23;;;;;;;;;;4997092;28;20115;-51
2023/03/27 11:44:02;;;;;;;13.57;12.77;;;;;;;;;;4994745;28;20034;-50
2023/03/27 11:46:33;;;;;;;16.42;15.10;;;;;;;;;;4995911;28;20049;-50
2023/03/27 11:49:08;;;;;;;;;;;;;;;;;;4999757;28;20112;-48
2023/03/27 11:51:56;;;;;;;14.57;13.77;;;;;;;;;;4996014;28;20267;-46
2023/03/27 11:54:33;;;;;;;14.15;13.35;;;;;;;;;;4996871;28;20031;-48
2023/03/27 11:57:01;;;;;;;13.10;12.30;;;;;;;;;;4996302;28;20042;-50
2023/03/27 11:59:27;;;;;;;11.73;11.00;;;;;;;;;;4994693;28;20057;-51
2023/03/27 12:02:24;;;;;;;11.40;10.73;;;;;;;;;;4996698;28;20460;-50
2023/03/27 12:05:21;;;;;;;14.35;13.55;;;;;;;;;;4997130;28;20480;-49
2023/03/27 12:08:06;;;;;;;14.35;13.55;;;;;;;;;;4960184;28;20058;-49
2023/03/27 12:10:37;;;;;;;15.75;14.85;;;;;;;;;;4995233;28;20206;-51
2023/03/27 12:13:17;;;;;;;15.07;14.23;;;;;;;;;;4998864;28;20497;-47
2023/03/27 12:15:56;;;;;;;15.13;14.27;;;;;;;;;;4997913;28;20334;-52
2023/03/27 12:18:51;;;;;;;12.20;11.50;;;;;;;;;;4999604;28;20041;-51
2023/03/27 12:21:36;;;;;;;13.25;12.45;;;;;;;;;;4993076;28;20058;-47
2023/03/27 12:24:10;;;;;;;13.32;12.52;;;;;;;;;;4995846;28;20049;-49
2023/03/27 12:26:44;;;;;;;13.98;13.18;;;;;;;;;;5001443;28;20042;-51
2023/03/27 12:29:22;;;;;;;13.57;12.77;;;;;;;;;;4995834;28;20400;-52
2023/03/27 12:31:51;;;;;;;14.73;13.82;;;;;;;;;;4995403;28;20045;-54
2023/03/27 12:34:25;;;;;;;15.30;14.35;;;;;;;;;;4995035;28;20040;-54
2023/03/27 12:36:52;;;;;;;13.82;13.02;;;;;;;;;;5009921;28;20411;-55
2023/03/27 12:39:21;;;;;;;12.70;11.93;;;;;;;;;;4992140;28;20108;-54
2023/03/27 12:41:47;;;;;;;11.77;10.88;;;;;;;;;;4995806;28;20030;-53
2023/03/27 12:44:16;;;;;;;10.48;9.88;;;;;;;;;;4993578;28;20377;-52
2023/03/27 12:46:41;;;;;;;10.20;9.60;;;;;;;;;;5010424;28;20027;-50
2023/03/27 12:49:07;;;;;;;10.30;9.65;;;;;;;;;;5007952;28;20084;-57
2023/03/27 12:51:53;;;;;;;9.95;9.35;;;;;;;;;;5001975;28;20038;-54
2023/03/27 12:54:27;;;;;;;10.48;9.77;;;;;;;;;;4994910;28;20041;-53
2023/03/27 12:57:17;;;;;;;12.38;11.48;;;;;;;;;;4993342;28;20374;-54
2023/03/27 12:59:45;;;;;;;9.88;9.18;;;;;;;;;;4998327;28;20038;-53
2023/03/27 13:02:29;;;;;;;10.52;9.93;;;;;;;;;;4991931;28;20384;-51
2023/03/27 13:05:09;;;;;;;10.20;9.60;;;;;;;;;;4993263;28;20866;-53
2023/03/27 13:07:58;;;;;;;9.88;9.27;;;;;;;;;;4996356;28;20077;-52
2023/03/27 13:10:39;;;;;;;9.57;8.98;;;;;;;;;;4994317;28;20034;-48
2023/03/27 13:13:35;;;;;;;9.43;8.82;;;;;;;;;;4991641;28;20154;-49
2023/03/27 13:16:12;;;;;;;9.65;9.05;;;;;;;;;;5011522;28;20108;-48
2023/03/27 13:18:37;;;;;;;10.50;9.80;;;;;;;;;;4994657;28;20145;-48
2023/03/27 13:21:10;;;;;;;10.32;9.73;;;;;;;;;;4992991;28;20061;-48
2023/03/27 13:23:51;;;;;;;9.73;9.13;;;;;;;;;;4994688;28;20061;-49
2023/03/27 13:26:37;;;;;;;9.13;8.53;;;;;;;;;;4996493;28;20045;-49
2023/03/27 13:29:15;;;;;;;9.65;9.05;;;;;;;;;;4992766;28;20655;-48
2023/03/27 13:31:44;;;;;;;10.68;9.98;;;;;;;;;;4994228;28;20517;-52
2023/03/27 13:34:15;;;;;;;10.18;9.57;;;;;;;;;;4992755;28;20041;-51
2023/03/27 13:36:45;;;;;;;10.57;9.88;;;;;;;;;;4996123;28;20277;-51
2023/03/27 13:39:19;;;;;;;10.53;9.83;;;;;;;;;;4993209;28;20516;-51
2023/03/27 13:41:48;;;;;;;9.70;9.10;;;;;;;;;;4992459;28;20045;-54
2023/03/27 13:44:20;;;;;;;13.00;12.25;;;;;;;;;;4991725;28;20030;-54
2023/03/27 13:47:11;;;;;;;13.77;12.98;;;;;;;;;;4993242;28;20034;-53
2023/03/27 13:49:44;;;;;;;14.13;13.30;;;;;;;;;;4955810;28;20060;-53
2023/03/27 13:52:30;;;;;;;13.10;12.35;;;;;;;;;;4993718;28;20022;-53
2023/03/27 13:55:20;;;;;;;14.38;13.52;;;;;;;;;;4993686;28;20038;-62
2023/03/27 13:58:14;;;;;;;13.10;12.33;;;;;;;;;;4996091;28;20041;-55
2023/03/27 14:00:54;;;;;;;13.48;12.68;;;;;;;;;;4990355;28;20080;-55
2023/03/27 14:04:08;;;;;;;13.35;12.55;;;;;;;;;;4991983;28;20038;-56
2023/03/27 14:07:10;;;;;;;13.85;13.05;;;;;;;;;;4955312;28;20156;-54
2023/03/27 14:09:55;;;;;;;12.32;11.63;;;;;;;;;;4994773;28;20499;-55
2023/03/27 14:12:51;;;;;;;12.85;12.15;;;;;;;;;;4993382;28;20435;-53
2023/03/27 14:15:39;;;;;;;13.02;12.27;;;;;;;;;;4992502;28;20472;-52
2023/03/27 14:18:26;;;;;;;12.75;12.05;;;;;;;;;;4993292;28;20038;-53
2023/03/27 14:20:57;;;;;;;12.70;12.00;;;;;;;;;;4991984;28;20038;-52
2023/03/27 14:23:31;;;;;;;13.93;13.13;;;;;;;;;;4991274;28;20046;-52
2023/03/27 14:26:09;;;;;;;14.63;13.82;;;;;;;;;;4991965;28;20104;-51
2023/03/27 14:28:54;;;;;;;15.32;14.20;;;;;;;;;;4990045;28;20034;-52
2023/03/27 14:31:21;;;;;;;14.02;13.02;;;;;;;;;;4996904;28;20109;-50
2023/03/27 14:34:08;;;;;;;14.13;13.32;;;;;;;;;;4992489;28;20030;-48
2023/03/27 14:36:47;;;;;;;11.15;10.45;;;;;;;;;;4994014;28;20057;-48
2023/03/27 14:39:26;;;;;;;11.05;10.15;;;;;;;;;;4993647;28;20121;-48
2023/03/27 14:41:55;;;;;;;9.90;9.30;;;;;;;;;;4997091;28;20042;-47
2023/03/27 14:44:23;;;;;;;10.13;9.52;;;;;;;;;;4994895;28;20089;-47
2023/03/27 14:46:49;;;;;;;10.18;9.57;;;;;;;;;;4996713;28;20029;-49
2023/03/27 14:49:23;;;;;;;10.20;9.60;;;;;;;;;;4993539;28;20103;-53
2023/03/27 14:51:57;;;;;;;11.15;10.45;;;;;;;;;;4997695;28;20399;-50
2023/03/27 14:54:27;;;;;;;9.88;9.27;;;;;;;;;;5001487;28;20030;-52
2023/03/27 14:57:07;;;;;;;9.68;9.07;;;;;;;;;;4996470;28;20033;-49
2023/03/27 14:59:37;;;;;;;10.10;9.50;;;;;;;;;;5012333;28;20034;-48